sensor_id;sensor_type;location;lat;lon;timestamp;pressure;altitude;pressure_sealevel;temperature
5571;BMP180;2808;51.240;6.794;2023-04-25T00:00:15;100535.00;;;7.60
5571;BMP180;2808;51.240;6.794;2023-04-25T00:02:45;100534.00;;;7.70
5571;BMP180;2808;51.240;6.794;2023-04-25T00:05:13;100532.00;;;7.70
5571;BMP180;2808;51.240;6.794;2023-04-25T00:07:42;100537.00;;;7.80
5571;BMP180;2808;51.240;6.794;2023-04-25T00:10:12;100535.00;;;7.80
5571;BMP180;2808;51.240;6.794;2023-04-25T00:12:42;100532.00;;;7.90
5571;BMP180;2808;51.240;6.794;2023-04-25T00:15:10;100533.00;;;7.90
5571;BMP180;2808;51.240;6.794;2023-04-25T00:17:38;100523.00;;;7.90
5571;BMP180;2808;51.240;6.794;2023-04-25T00:20:06;100522.00;;;7.90
5571;BMP180;2808;51.240;6.794;2023-04-25T00:22:38;100525.00;;;7.90
5571;BMP180;2808;51.240;6.794;2023-04-25T00:25:07;100538.00;;;7.90
5571;BMP180;2808;51.240;6.794;2023-04-25T00:27:36;100534.00;;;7.90
5571;BMP180;2808;51.240;6.794;2023-04-25T00:30:06;100532.00;;;7.90
5571;BMP180;2808;51.240;6.794;2023-04-25T00:32:34;100533.00;;;7.90
5571;BMP180;2808;51.240;6.794;2023-04-25T00:35:02;100534.00;;;8.00
5571;BMP180;2808;51.240;6.794;2023-04-25T00:37:29;100535.00;;;8.00
5571;BMP180;2808;51.240;6.794;2023-04-25T00:39:58;100537.00;;;8.00
5571;BMP180;2808;51.240;6.794;2023-04-25T00:42:32;100537.00;;;8.00
5571;BMP180;2808;51.240;6.794;2023-04-25T00:45:09;100541.00;;;8.00
5571;BMP180;2808;51.240;6.794;2023-04-25T00:47:46;100534.00;;;8.00
5571;BMP180;2808;51.240;6.794;2023-04-25T00:50:14;100537.00;;;8.00
5571;BMP180;2808;51.240;6.794;2023-04-25T00:52:44;100532.00;;;8.00
5571;BMP180;2808;51.240;6.794;2023-04-25T00:55:12;100539.00;;;8.00
5571;BMP180;2808;51.240;6.794;2023-04-25T00:57:47;100537.00;;;8.00
5571;BMP180;2808;51.240;6.794;2023-04-25T01:00:22;100531.00;;;8.00
5571;BMP180;2808;51.240;6.794;2023-04-25T01:02:53;100535.00;;;8.00
5571;BMP180;2808;51.240;6.794;2023-04-25T01:05:23;100537.00;;;8.00
5571;BMP180;2808;51.240;6.794;2023-04-25T01:07:51;100536.00;;;8.00
5571;BMP180;2808;51.240;6.794;2023-04-25T01:10:21;100530.00;;;8.00
5571;BMP180;2808;51.240;6.794;2023-04-25T01:12:49;100540.00;;;7.90
5571;BMP180;2808;51.240;6.794;2023-04-25T01:20:09;100539.00;;;8.00
5571;BMP180;2808;51.240;6.794;2023-04-25T01:22:37;100552.00;;;8.00
5571;BMP180;2808;51.240;6.794;2023-04-25T01:25:26;100542.00;;;8.00
5571;BMP180;2808;51.240;6.794;2023-04-25T01:27:56;100542.00;;;8.00
5571;BMP180;2808;51.240;6.794;2023-04-25T01:30:38;100537.00;;;7.90
5571;BMP180;2808;51.240;6.794;2023-04-25T01:33:08;100534.00;;;8.00
5571;BMP180;2808;51.240;6.794;2023-04-25T01:35:36;100534.00;;;7.90
5571;BMP180;2808;51.240;6.794;2023-04-25T01:38:05;100538.00;;;7.90
5571;BMP180;2808;51.240;6.794;2023-04-25T01:40:34;100542.00;;;8.00
5571;BMP180;2808;51.240;6.794;2023-04-25T01:43:28;100549.00;;;7.90
5571;BMP180;2808;51.240;6.794;2023-04-25T01:46:38;100545.00;;;7.90
5571;BMP180;2808;51.240;6.794;2023-04-25T01:49:54;100550.00;;;8.00
5571;BMP180;2808;51.240;6.794;2023-04-25T01:52:50;100551.00;;;8.00
5571;BMP180;2808;51.240;6.794;2023-04-25T01:56:05;100558.00;;;7.90
5571;BMP180;2808;51.240;6.794;2023-04-25T02:09:50;100569.00;;;7.70
5571;BMP180;2808;51.240;6.794;2023-04-25T02:12:56;100566.00;;;7.70
5571;BMP180;2808;51.240;6.794;2023-04-25T02:19:35;100583.00;;;7.70
5571;BMP180;2808;51.240;6.794;2023-04-25T02:23:06;100574.00;;;7.70
5571;BMP180;2808;51.240;6.794;2023-04-25T02:25:56;100568.00;;;7.70
5571;BMP180;2808;51.240;6.794;2023-04-25T02:28:36;100572.00;;;7.70
5571;BMP180;2808;51.240;6.794;2023-04-25T02:39:08;100577.00;;;7.60
5571;BMP180;2808;51.240;6.794;2023-04-25T02:52:42;100579.00;;;7.50
5571;BMP180;2808;51.240;6.794;2023-04-25T02:56:33;100563.00;;;7.50
5571;BMP180;2808;51.240;6.794;2023-04-25T03:01:28;100571.00;;;7.40
5571;BMP180;2808;51.240;6.794;2023-04-25T03:04:10;100563.00;;;7.50
5571;BMP180;2808;51.240;6.794;2023-04-25T03:10:05;100568.00;;;7.50
5571;BMP180;2808;51.240;6.794;2023-04-25T03:17:06;100574.00;;;7.30
5571;BMP180;2808;51.240;6.794;2023-04-25T03:24:24;100575.00;;;7.20
5571;BMP180;2808;51.240;6.794;2023-04-25T04:04:26;100601.00;;;6.90
5571;BMP180;2808;51.240;6.794;2023-04-25T04:07:17;100594.00;;;6.90
5571;BMP180;2808;51.240;6.794;2023-04-25T04:11:08;100604.00;;;6.90
5571;BMP180;2808;51.240;6.794;2023-04-25T04:14:06;100600.00;;;6.90
5571;BMP180;2808;51.240;6.794;2023-04-25T04:17:17;100607.00;;;6.90
5571;BMP180;2808;51.240;6.794;2023-04-25T04:20:38;100612.00;;;6.80
5571;BMP180;2808;51.240;6.794;2023-04-25T04:23:31;100612.00;;;6.90
5571;BMP180;2808;51.240;6.794;2023-04-25T04:26:06;100608.00;;;6.90
5571;BMP180;2808;51.240;6.794;2023-04-25T04:28:59;100601.00;;;6.90
5571;BMP180;2808;51.240;6.794;2023-04-25T04:31:31;100617.00;;;6.90
5571;BMP180;2808;51.240;6.794;2023-04-25T04:34:19;100610.00;;;6.90
5571;BMP180;2808;51.240;6.794;2023-04-25T04:39:55;100619.00;;;6.90
5571;BMP180;2808;51.240;6.794;2023-04-25T04:42:44;100621.00;;;7.00
5571;BMP180;2808;51.240;6.794;2023-04-25T04:45:13;100627.00;;;7.00
5571;BMP180;2808;51.240;6.794;2023-04-25T04:48:10;100631.00;;;7.10
5571;BMP180;2808;51.240;6.794;2023-04-25T04:54:50;100639.00;;;7.30
5571;BMP180;2808;51.240;6.794;2023-04-25T04:57:51;100632.00;;;7.40
5571;BMP180;2808;51.240;6.794;2023-04-25T05:04:25;100652.00;;;7.50
5571;BMP180;2808;51.240;6.794;2023-04-25T05:07:06;100661.00;;;7.50
5571;BMP180;2808;51.240;6.794;2023-04-25T05:09:41;100661.00;;;7.60
5571;BMP180;2808;51.240;6.794;2023-04-25T05:12:10;100658.00;;;7.80
5571;BMP180;2808;51.240;6.794;2023-04-25T05:14:38;100662.00;;;8.00
5571;BMP180;2808;51.240;6.794;2023-04-25T05:17:06;100656.00;;;8.20
5571;BMP180;2808;51.240;6.794;2023-04-25T05:19:34;100670.00;;;8.60
5571;BMP180;2808;51.240;6.794;2023-04-25T05:22:02;100667.00;;;9.00
5571;BMP180;2808;51.240;6.794;2023-04-25T05:24:30;100665.00;;;9.30
5571;BMP180;2808;51.240;6.794;2023-04-25T05:27:01;100669.00;;;9.50
5571;BMP180;2808;51.240;6.794;2023-04-25T05:29:29;100682.00;;;9.60
5571;BMP180;2808;51.240;6.794;2023-04-25T05:31:57;100684.00;;;9.50
5571;BMP180;2808;51.240;6.794;2023-04-25T05:34:27;100686.00;;;9.40
5571;BMP180;2808;51.240;6.794;2023-04-25T05:36:57;100685.00;;;9.30
5571;BMP180;2808;51.240;6.794;2023-04-25T05:39:25;100672.00;;;9.40
5571;BMP180;2808;51.240;6.794;2023-04-25T05:41:53;100682.00;;;9.40
5571;BMP180;2808;51.240;6.794;2023-04-25T05:44:22;100679.00;;;9.40
5571;BMP180;2808;51.240;6.794;2023-04-25T05:46:51;100682.00;;;9.30
5571;BMP180;2808;51.240;6.794;2023-04-25T05:49:18;100684.00;;;9.40
5571;BMP180;2808;51.240;6.794;2023-04-25T05:51:46;100684.00;;;9.50
5571;BMP180;2808;51.240;6.794;2023-04-25T05:54:13;100689.00;;;9.70
5571;BMP180;2808;51.240;6.794;2023-04-25T05:56:40;100687.00;;;9.90
5571;BMP180;2808;51.240;6.794;2023-04-25T05:59:08;100686.00;;;10.00
5571;BMP180;2808;51.240;6.794;2023-04-25T06:01:37;100694.00;;;10.30
5571;BMP180;2808;51.240;6.794;2023-04-25T06:04:04;100695.00;;;10.40
5571;BMP180;2808;51.240;6.794;2023-04-25T06:06:31;100692.00;;;10.60
5571;BMP180;2808;51.240;6.794;2023-04-25T06:08:59;100687.00;;;10.90
5571;BMP180;2808;51.240;6.794;2023-04-25T06:11:26;100698.00;;;11.10
5571;BMP180;2808;51.240;6.794;2023-04-25T06:13:54;100700.00;;;10.80
5571;BMP180;2808;51.240;6.794;2023-04-25T06:16:21;100700.00;;;10.70
5571;BMP180;2808;51.240;6.794;2023-04-25T06:18:50;100700.00;;;10.70
5571;BMP180;2808;51.240;6.794;2023-04-25T06:21:17;100697.00;;;10.60
5571;BMP180;2808;51.240;6.794;2023-04-25T06:23:44;100708.00;;;10.90
5571;BMP180;2808;51.240;6.794;2023-04-25T06:26:12;100711.00;;;11.10
5571;BMP180;2808;51.240;6.794;2023-04-25T06:28:39;100711.00;;;11.00
5571;BMP180;2808;51.240;6.794;2023-04-25T06:31:07;100714.00;;;11.10
5571;BMP180;2808;51.240;6.794;2023-04-25T06:33:34;100719.00;;;11.20
5571;BMP180;2808;51.240;6.794;2023-04-25T06:36:03;100724.00;;;11.10
5571;BMP180;2808;51.240;6.794;2023-04-25T06:38:31;100722.00;;;11.10
5571;BMP180;2808;51.240;6.794;2023-04-25T06:40:58;100721.00;;;11.20
5571;BMP180;2808;51.240;6.794;2023-04-25T06:43:25;100729.00;;;11.40
5571;BMP180;2808;51.240;6.794;2023-04-25T06:45:53;100728.00;;;11.80
5571;BMP180;2808;51.240;6.794;2023-04-25T06:48:20;100726.00;;;11.80
5571;BMP180;2808;51.240;6.794;2023-04-25T06:50:48;100733.00;;;12.00
5571;BMP180;2808;51.240;6.794;2023-04-25T06:53:17;100732.00;;;12.10
5571;BMP180;2808;51.240;6.794;2023-04-25T06:55:44;100728.00;;;12.70
5571;BMP180;2808;51.240;6.794;2023-04-25T06:58:12;100733.00;;;13.00
5571;BMP180;2808;51.240;6.794;2023-04-25T07:00:39;100736.00;;;13.30
5571;BMP180;2808;51.240;6.794;2023-04-25T07:03:06;100743.00;;;13.70
5571;BMP180;2808;51.240;6.794;2023-04-25T07:05:34;100747.00;;;13.60
5571;BMP180;2808;51.240;6.794;2023-04-25T07:08:01;100749.00;;;13.70
5571;BMP180;2808;51.240;6.794;2023-04-25T07:10:31;100748.00;;;13.60
5571;BMP180;2808;51.240;6.794;2023-04-25T07:12:58;100746.00;;;13.90
5571;BMP180;2808;51.240;6.794;2023-04-25T07:15:26;100747.00;;;13.80
5571;BMP180;2808;51.240;6.794;2023-04-25T07:17:53;100740.00;;;13.50
5571;BMP180;2808;51.240;6.794;2023-04-25T07:20:20;100753.00;;;13.70
5571;BMP180;2808;51.240;6.794;2023-04-25T07:22:48;100757.00;;;13.60
5571;BMP180;2808;51.240;6.794;2023-04-25T07:25:16;100761.00;;;13.30
5571;BMP180;2808;51.240;6.794;2023-04-25T07:27:44;100763.00;;;13.10
5571;BMP180;2808;51.240;6.794;2023-04-25T07:30:12;100762.00;;;12.70
5571;BMP180;2808;51.240;6.794;2023-04-25T07:32:40;100772.00;;;12.30
5571;BMP180;2808;51.240;6.794;2023-04-25T07:35:08;100768.00;;;11.90
5571;BMP180;2808;51.240;6.794;2023-04-25T07:37:36;100764.00;;;11.80
5571;BMP180;2808;51.240;6.794;2023-04-25T07:40:04;100772.00;;;11.50
5571;BMP180;2808;51.240;6.794;2023-04-25T07:42:32;100771.00;;;11.40
5571;BMP180;2808;51.240;6.794;2023-04-25T07:45:02;100780.00;;;11.50
5571;BMP180;2808;51.240;6.794;2023-04-25T07:47:30;100781.00;;;11.80
5571;BMP180;2808;51.240;6.794;2023-04-25T07:49:57;100784.00;;;11.70
5571;BMP180;2808;51.240;6.794;2023-04-25T07:52:24;100785.00;;;11.60
5571;BMP180;2808;51.240;6.794;2023-04-25T07:54:52;100796.00;;;11.30
5571;BMP180;2808;51.240;6.794;2023-04-25T07:57:19;100792.00;;;11.60
5571;BMP180;2808;51.240;6.794;2023-04-25T07:59:47;100798.00;;;12.10
5571;BMP180;2808;51.240;6.794;2023-04-25T08:02:16;100802.00;;;12.50
5571;BMP180;2808;51.240;6.794;2023-04-25T08:04:43;100795.00;;;12.80
5571;BMP180;2808;51.240;6.794;2023-04-25T08:07:11;100795.00;;;13.30
5571;BMP180;2808;51.240;6.794;2023-04-25T08:09:38;100788.00;;;13.50
5571;BMP180;2808;51.240;6.794;2023-04-25T08:12:06;100802.00;;;14.20
5571;BMP180;2808;51.240;6.794;2023-04-25T08:14:33;100803.00;;;14.40
5571;BMP180;2808;51.240;6.794;2023-04-25T08:17:03;100807.00;;;14.10
5571;BMP180;2808;51.240;6.794;2023-04-25T08:19:32;100809.00;;;13.70
5571;BMP180;2808;51.240;6.794;2023-04-25T08:21:59;100819.00;;;13.40
5571;BMP180;2808;51.240;6.794;2023-04-25T08:24:27;100824.00;;;13.10
5571;BMP180;2808;51.240;6.794;2023-04-25T08:26:54;100820.00;;;12.90
5571;BMP180;2808;51.240;6.794;2023-04-25T08:29:22;100836.00;;;12.90
5571;BMP180;2808;51.240;6.794;2023-04-25T08:31:51;100838.00;;;13.10
5571;BMP180;2808;51.240;6.794;2023-04-25T08:34:19;100833.00;;;13.20
5571;BMP180;2808;51.240;6.794;2023-04-25T08:36:48;100830.00;;;13.70
5571;BMP180;2808;51.240;6.794;2023-04-25T08:39:16;100839.00;;;14.20
5571;BMP180;2808;51.240;6.794;2023-04-25T08:41:44;100854.00;;;14.50
5571;BMP180;2808;51.240;6.794;2023-04-25T08:44:12;100846.00;;;14.10
5571;BMP180;2808;51.240;6.794;2023-04-25T08:46:40;100860.00;;;14.10
5571;BMP180;2808;51.240;6.794;2023-04-25T08:49:08;100851.00;;;13.70
5571;BMP180;2808;51.240;6.794;2023-04-25T08:51:40;100852.00;;;13.80
5571;BMP180;2808;51.240;6.794;2023-04-25T08:54:14;100864.00;;;14.10
5571;BMP180;2808;51.240;6.794;2023-04-25T08:56:44;100861.00;;;14.30
5571;BMP180;2808;51.240;6.794;2023-04-25T08:59:12;100864.00;;;14.50
5571;BMP180;2808;51.240;6.794;2023-04-25T09:01:40;100863.00;;;14.80
5571;BMP180;2808;51.240;6.794;2023-04-25T09:04:07;100868.00;;;14.70
5571;BMP180;2808;51.240;6.794;2023-04-25T09:06:35;100870.00;;;14.50
5571;BMP180;2808;51.240;6.794;2023-04-25T09:09:06;100877.00;;;14.40
5571;BMP180;2808;51.240;6.794;2023-04-25T09:11:36;100874.00;;;14.30
5571;BMP180;2808;51.240;6.794;2023-04-25T09:14:17;100880.00;;;14.50
5571;BMP180;2808;51.240;6.794;2023-04-25T09:17:00;100883.00;;;14.40
5571;BMP180;2808;51.240;6.794;2023-04-25T09:19:29;100891.00;;;14.20
5571;BMP180;2808;51.240;6.794;2023-04-25T09:21:58;100892.00;;;14.00
5571;BMP180;2808;51.240;6.794;2023-04-25T09:24:37;100902.00;;;13.70
5571;BMP180;2808;51.240;6.794;2023-04-25T09:27:09;100902.00;;;13.50
5571;BMP180;2808;51.240;6.794;2023-04-25T09:29:38;100913.00;;;13.00
5571;BMP180;2808;51.240;6.794;2023-04-25T09:32:17;100910.00;;;12.70
5571;BMP180;2808;51.240;6.794;2023-04-25T09:34:46;100898.00;;;12.90
5571;BMP180;2808;51.240;6.794;2023-04-25T09:37:18;100902.00;;;13.20
5571;BMP180;2808;51.240;6.794;2023-04-25T09:39:47;100899.00;;;13.50
5571;BMP180;2808;51.240;6.794;2023-04-25T09:42:16;100907.00;;;13.50
5571;BMP180;2808;51.240;6.794;2023-04-25T09:44:45;100914.00;;;13.60
5571;BMP180;2808;51.240;6.794;2023-04-25T09:47:13;100916.00;;;13.60
5571;BMP180;2808;51.240;6.794;2023-04-25T09:49:42;100924.00;;;13.30
5571;BMP180;2808;51.240;6.794;2023-04-25T09:52:13;100915.00;;;13.10
5571;BMP180;2808;51.240;6.794;2023-04-25T09:54:41;100921.00;;;13.70
5571;BMP180;2808;51.240;6.794;2023-04-25T09:57:11;100916.00;;;14.10
5571;BMP180;2808;51.240;6.794;2023-04-25T09:59:45;100931.00;;;14.10
5571;BMP180;2808;51.240;6.794;2023-04-25T10:02:14;100943.00;;;14.20
5571;BMP180;2808;51.240;6.794;2023-04-25T10:04:42;100936.00;;;14.10
5571;BMP180;2808;51.240;6.794;2023-04-25T10:07:12;100937.00;;;13.90
5571;BMP180;2808;51.240;6.794;2023-04-25T10:09:40;100950.00;;;13.90
5571;BMP180;2808;51.240;6.794;2023-04-25T10:12:08;100942.00;;;14.00
5571;BMP180;2808;51.240;6.794;2023-04-25T10:14:37;100963.00;;;14.00
5571;BMP180;2808;51.240;6.794;2023-04-25T10:17:06;100961.00;;;13.90
5571;BMP180;2808;51.240;6.794;2023-04-25T10:19:34;100960.00;;;13.80
5571;BMP180;2808;51.240;6.794;2023-04-25T10:22:08;100968.00;;;13.60
5571;BMP180;2808;51.240;6.794;2023-04-25T10:24:39;100967.00;;;13.30
5571;BMP180;2808;51.240;6.794;2023-04-25T10:27:08;100961.00;;;13.20
5571;BMP180;2808;51.240;6.794;2023-04-25T10:29:36;100971.00;;;13.10
5571;BMP180;2808;51.240;6.794;2023-04-25T10:32:03;100975.00;;;13.00
5571;BMP180;2808;51.240;6.794;2023-04-25T10:34:43;100974.00;;;12.80
5571;BMP180;2808;51.240;6.794;2023-04-25T10:37:13;100975.00;;;12.70
5571;BMP180;2808;51.240;6.794;2023-04-25T10:39:41;100972.00;;;12.80
5571;BMP180;2808;51.240;6.794;2023-04-25T10:42:09;100976.00;;;12.90
5571;BMP180;2808;51.240;6.794;2023-04-25T10:44:38;100975.00;;;12.90
5571;BMP180;2808;51.240;6.794;2023-04-25T10:47:07;100970.00;;;13.00
5571;BMP180;2808;51.240;6.794;2023-04-25T10:49:36;100970.00;;;13.10
5571;BMP180;2808;51.240;6.794;2023-04-25T10:52:19;100968.00;;;13.30
5571;BMP180;2808;51.240;6.794;2023-04-25T10:54:53;100971.00;;;13.60
5571;BMP180;2808;51.240;6.794;2023-04-25T10:57:30;100966.00;;;13.90
5571;BMP180;2808;51.240;6.794;2023-04-25T11:00:00;100965.00;;;14.10
5571;BMP180;2808;51.240;6.794;2023-04-25T11:02:31;100963.00;;;14.20
5571;BMP180;2808;51.240;6.794;2023-04-25T11:04:59;100963.00;;;14.00
5571;BMP180;2808;51.240;6.794;2023-04-25T11:07:35;100966.00;;;14.00
5571;BMP180;2808;51.240;6.794;2023-04-25T11:10:05;100961.00;;;13.70
5571;BMP180;2808;51.240;6.794;2023-04-25T11:12:33;100955.00;;;13.70
5571;BMP180;2808;51.240;6.794;2023-04-25T11:15:02;100959.00;;;13.60
5571;BMP180;2808;51.240;6.794;2023-04-25T11:17:30;100957.00;;;13.60
5571;BMP180;2808;51.240;6.794;2023-04-25T11:19:58;100973.00;;;13.60
5571;BMP180;2808;51.240;6.794;2023-04-25T11:22:28;100978.00;;;13.50
5571;BMP180;2808;51.240;6.794;2023-04-25T11:24:56;100978.00;;;13.50
5571;BMP180;2808;51.240;6.794;2023-04-25T11:27:23;100972.00;;;13.50
5571;BMP180;2808;51.240;6.794;2023-04-25T11:29:51;100969.00;;;13.40
5571;BMP180;2808;51.240;6.794;2023-04-25T11:32:21;100969.00;;;13.50
5571;BMP180;2808;51.240;6.794;2023-04-25T11:34:49;100970.00;;;13.50
5571;BMP180;2808;51.240;6.794;2023-04-25T11:37:16;100966.00;;;13.40
5571;BMP180;2808;51.240;6.794;2023-04-25T11:39:46;100963.00;;;13.50
5571;BMP180;2808;51.240;6.794;2023-04-25T11:42:14;100959.00;;;13.70
5571;BMP180;2808;51.240;6.794;2023-04-25T11:44:41;100964.00;;;13.80
5571;BMP180;2808;51.240;6.794;2023-04-25T11:47:09;100965.00;;;13.90
5571;BMP180;2808;51.240;6.794;2023-04-25T11:49:36;100960.00;;;14.00
5571;BMP180;2808;51.240;6.794;2023-04-25T11:52:06;100964.00;;;14.20
5571;BMP180;2808;51.240;6.794;2023-04-25T11:54:36;100960.00;;;14.20
5571;BMP180;2808;51.240;6.794;2023-04-25T11:57:05;100971.00;;;14.00
5571;BMP180;2808;51.240;6.794;2023-04-25T11:59:33;100975.00;;;13.90
5571;BMP180;2808;51.240;6.794;2023-04-25T12:02:00;100969.00;;;13.70
5571;BMP180;2808;51.240;6.794;2023-04-25T12:04:30;100975.00;;;13.70
5571;BMP180;2808;51.240;6.794;2023-04-25T12:06:58;100979.00;;;13.60
5571;BMP180;2808;51.240;6.794;2023-04-25T12:09:31;100981.00;;;13.50
5571;BMP180;2808;51.240;6.794;2023-04-25T12:12:00;100995.00;;;13.30
5571;BMP180;2808;51.240;6.794;2023-04-25T12:14:32;101001.00;;;12.90
5571;BMP180;2808;51.240;6.794;2023-04-25T12:17:01;100997.00;;;12.30
5571;BMP180;2808;51.240;6.794;2023-04-25T12:19:33;101012.00;;;12.00
5571;BMP180;2808;51.240;6.794;2023-04-25T12:22:01;101015.00;;;11.40
5571;BMP180;2808;51.240;6.794;2023-04-25T12:24:29;101018.00;;;11.20
5571;BMP180;2808;51.240;6.794;2023-04-25T12:27:01;101029.00;;;11.20
5571;BMP180;2808;51.240;6.794;2023-04-25T12:29:31;101034.00;;;11.00
5571;BMP180;2808;51.240;6.794;2023-04-25T12:31:59;101040.00;;;10.80
5571;BMP180;2808;51.240;6.794;2023-04-25T12:34:27;101041.00;;;10.70
5571;BMP180;2808;51.240;6.794;2023-04-25T12:36:55;101046.00;;;10.80
5571;BMP180;2808;51.240;6.794;2023-04-25T12:39:24;101038.00;;;11.00
5571;BMP180;2808;51.240;6.794;2023-04-25T12:41:52;101044.00;;;11.20
5571;BMP180;2808;51.240;6.794;2023-04-25T12:44:20;101054.00;;;11.20
5571;BMP180;2808;51.240;6.794;2023-04-25T12:46:49;101042.00;;;11.20
5571;BMP180;2808;51.240;6.794;2023-04-25T12:49:17;101046.00;;;11.40
5571;BMP180;2808;51.240;6.794;2023-04-25T12:51:44;101041.00;;;11.50
5571;BMP180;2808;51.240;6.794;2023-04-25T12:54:12;101034.00;;;11.60
5571;BMP180;2808;51.240;6.794;2023-04-25T12:56:41;101051.00;;;11.70
5571;BMP180;2808;51.240;6.794;2023-04-25T12:59:08;101035.00;;;11.70
5571;BMP180;2808;51.240;6.794;2023-04-25T13:01:36;101028.00;;;11.60
5571;BMP180;2808;51.240;6.794;2023-04-25T13:04:05;101023.00;;;11.60
5571;BMP180;2808;51.240;6.794;2023-04-25T13:06:33;101038.00;;;11.60
5571;BMP180;2808;51.240;6.794;2023-04-25T13:09:00;101040.00;;;11.70
5571;BMP180;2808;51.240;6.794;2023-04-25T13:11:29;101030.00;;;11.80
5571;BMP180;2808;51.240;6.794;2023-04-25T13:13:57;101033.00;;;11.80
5571;BMP180;2808;51.240;6.794;2023-04-25T13:16:24;101040.00;;;11.90
5571;BMP180;2808;51.240;6.794;2023-04-25T13:18:52;101041.00;;;12.00
5571;BMP180;2808;51.240;6.794;2023-04-25T13:21:20;101030.00;;;12.10
5571;BMP180;2808;51.240;6.794;2023-04-25T13:23:51;101045.00;;;12.20
5571;BMP180;2808;51.240;6.794;2023-04-25T13:26:18;101039.00;;;12.30
5571;BMP180;2808;51.240;6.794;2023-04-25T13:28:46;101053.00;;;12.30
5571;BMP180;2808;51.240;6.794;2023-04-25T13:31:13;101041.00;;;12.30
5571;BMP180;2808;51.240;6.794;2023-04-25T13:33:41;101035.00;;;12.30
5571;BMP180;2808;51.240;6.794;2023-04-25T13:36:08;101045.00;;;12.50
5571;BMP180;2808;51.240;6.794;2023-04-25T13:38:37;101039.00;;;12.60
5571;BMP180;2808;51.240;6.794;2023-04-25T13:41:05;101038.00;;;12.60
5571;BMP180;2808;51.240;6.794;2023-04-25T13:43:33;101038.00;;;12.70
5571;BMP180;2808;51.240;6.794;2023-04-25T13:46:01;101044.00;;;12.80
5571;BMP180;2808;51.240;6.794;2023-04-25T13:48:28;101039.00;;;12.80
5571;BMP180;2808;51.240;6.794;2023-04-25T13:50:56;101045.00;;;12.80
5571;BMP180;2808;51.240;6.794;2023-04-25T13:53:24;101047.00;;;12.90
5571;BMP180;2808;51.240;6.794;2023-04-25T13:55:52;101043.00;;;13.00
5571;BMP180;2808;51.240;6.794;2023-04-25T13:58:20;101042.00;;;13.00
5571;BMP180;2808;51.240;6.794;2023-04-25T14:00:48;101045.00;;;13.10
5571;BMP180;2808;51.240;6.794;2023-04-25T14:03:16;101038.00;;;13.20
5571;BMP180;2808;51.240;6.794;2023-04-25T14:05:43;101034.00;;;13.20
5571;BMP180;2808;51.240;6.794;2023-04-25T14:08:10;101034.00;;;13.20
5571;BMP180;2808;51.240;6.794;2023-04-25T14:10:38;101037.00;;;13.10
5571;BMP180;2808;51.240;6.794;2023-04-25T14:13:07;101048.00;;;13.20
5571;BMP180;2808;51.240;6.794;2023-04-25T14:15:35;101039.00;;;13.20
5571;BMP180;2808;51.240;6.794;2023-04-25T14:18:02;101042.00;;;13.00
5571;BMP180;2808;51.240;6.794;2023-04-25T14:20:30;101044.00;;;12.90
5571;BMP180;2808;51.240;6.794;2023-04-25T14:22:57;101039.00;;;12.80
5571;BMP180;2808;51.240;6.794;2023-04-25T14:25:25;101044.00;;;12.70
5571;BMP180;2808;51.240;6.794;2023-04-25T14:27:52;101046.00;;;12.70
5571;BMP180;2808;51.240;6.794;2023-04-25T14:30:22;101055.00;;;12.70
5571;BMP180;2808;51.240;6.794;2023-04-25T14:32:49;101049.00;;;12.60
5571;BMP180;2808;51.240;6.794;2023-04-25T14:35:17;101054.00;;;12.60
5571;BMP180;2808;51.240;6.794;2023-04-25T14:37:44;101056.00;;;12.60
5571;BMP180;2808;51.240;6.794;2023-04-25T14:40:13;101055.00;;;12.60
5571;BMP180;2808;51.240;6.794;2023-04-25T14:42:41;101055.00;;;12.70
5571;BMP180;2808;51.240;6.794;2023-04-25T14:45:09;101041.00;;;12.70
5571;BMP180;2808;51.240;6.794;2023-04-25T14:47:39;101054.00;;;12.80
5571;BMP180;2808;51.240;6.794;2023-04-25T14:50:08;101054.00;;;12.90
5571;BMP180;2808;51.240;6.794;2023-04-25T14:52:36;101049.00;;;12.80
5571;BMP180;2808;51.240;6.794;2023-04-25T14:55:03;101043.00;;;12.70
5571;BMP180;2808;51.240;6.794;2023-04-25T14:57:31;101045.00;;;12.60
5571;BMP180;2808;51.240;6.794;2023-04-25T14:59:59;101048.00;;;12.60
5571;BMP180;2808;51.240;6.794;2023-04-25T15:02:27;101040.00;;;12.50
5571;BMP180;2808;51.240;6.794;2023-04-25T15:04:56;101040.00;;;12.40
5571;BMP180;2808;51.240;6.794;2023-04-25T15:07:23;101050.00;;;12.30
5571;BMP180;2808;51.240;6.794;2023-04-25T15:09:50;101053.00;;;12.30
5571;BMP180;2808;51.240;6.794;2023-04-25T15:12:19;101043.00;;;12.30
5571;BMP180;2808;51.240;6.794;2023-04-25T15:14:47;101047.00;;;12.30
5571;BMP180;2808;51.240;6.794;2023-04-25T15:17:14;101050.00;;;12.30
5571;BMP180;2808;51.240;6.794;2023-04-25T15:19:41;101056.00;;;12.40
5571;BMP180;2808;51.240;6.794;2023-04-25T15:22:10;101055.00;;;12.40
5571;BMP180;2808;51.240;6.794;2023-04-25T15:24:38;101053.00;;;12.30
5571;BMP180;2808;51.240;6.794;2023-04-25T15:27:05;101058.00;;;12.30
5571;BMP180;2808;51.240;6.794;2023-04-25T15:29:33;101062.00;;;12.20
5571;BMP180;2808;51.240;6.794;2023-04-25T15:32:01;101070.00;;;12.20
5571;BMP180;2808;51.240;6.794;2023-04-25T15:34:29;101064.00;;;12.20
5571;BMP180;2808;51.240;6.794;2023-04-25T15:36:56;101078.00;;;12.20
5571;BMP180;2808;51.240;6.794;2023-04-25T15:39:25;101073.00;;;12.20
5571;BMP180;2808;51.240;6.794;2023-04-25T15:41:53;101081.00;;;12.20
5571;BMP180;2808;51.240;6.794;2023-04-25T15:44:21;101081.00;;;12.20
5571;BMP180;2808;51.240;6.794;2023-04-25T15:46:48;101068.00;;;12.20
5571;BMP180;2808;51.240;6.794;2023-04-25T15:49:15;101075.00;;;12.10
5571;BMP180;2808;51.240;6.794;2023-04-25T15:51:44;101073.00;;;11.90
5571;BMP180;2808;51.240;6.794;2023-04-25T15:54:11;101059.00;;;11.90
5571;BMP180;2808;51.240;6.794;2023-04-25T15:56:40;101075.00;;;11.90
5571;BMP180;2808;51.240;6.794;2023-04-25T15:59:08;101082.00;;;12.10
5571;BMP180;2808;51.240;6.794;2023-04-25T16:01:35;101067.00;;;12.20
5571;BMP180;2808;51.240;6.794;2023-04-25T16:04:03;101077.00;;;12.30
5571;BMP180;2808;51.240;6.794;2023-04-25T16:06:31;101075.00;;;12.30
5571;BMP180;2808;51.240;6.794;2023-04-25T16:08:58;101086.00;;;12.30
5571;BMP180;2808;51.240;6.794;2023-04-25T16:11:26;101084.00;;;12.20
5571;BMP180;2808;51.240;6.794;2023-04-25T16:13:56;101078.00;;;12.00
5571;BMP180;2808;51.240;6.794;2023-04-25T16:16:23;101078.00;;;11.90
5571;BMP180;2808;51.240;6.794;2023-04-25T16:18:51;101093.00;;;11.80
5571;BMP180;2808;51.240;6.794;2023-04-25T16:21:18;101091.00;;;11.60
5571;BMP180;2808;51.240;6.794;2023-04-25T16:24:16;101092.00;;;11.50
5571;BMP180;2808;51.240;6.794;2023-04-25T16:27:05;101099.00;;;11.30
5571;BMP180;2808;51.240;6.794;2023-04-25T16:29:34;101095.00;;;11.20